createdAt,value
2018-12-10T00:01:18.477Z,5.10
2018-12-10T00:03:45.980Z,5.10
2018-12-10T00:06:13.506Z,5.10
2018-12-10T00:08:41.033Z,5.10
2018-12-10T00:11:08.626Z,5.10
2018-12-10T00:13:36.281Z,5.10
2018-12-10T00:16:03.856Z,5.10
2018-12-10T00:18:31.398Z,5.10
2018-12-10T00:20:58.896Z,5.10
2018-12-10T00:23:26.416Z,5.10
2018-12-10T00:25:53.949Z,5.10
2018-12-10T00:28:21.438Z,5.10
2018-12-10T00:30:48.952Z,5.10
2018-12-10T00:33:16.457Z,4.40
2018-12-10T00:35:43.960Z,5.20
2018-12-10T00:38:11.460Z,5.10
2018-12-10T00:40:38.981Z,5.10
2018-12-10T00:43:06.469Z,5.20
2018-12-10T00:45:33.965Z,5.10
2018-12-10T00:48:01.517Z,5.10
2018-12-10T00:50:29.158Z,5.10
2018-12-10T00:52:56.653Z,5.00
2018-12-10T00:55:24.166Z,5.00
2018-12-10T00:57:51.688Z,5.00
2018-12-10T01:00:19.408Z,5.00
2018-12-10T01:02:46.939Z,5.00
2018-12-10T01:05:14.634Z,5.00
2018-12-10T01:07:42.124Z,5.00
2018-12-10T01:10:09.656Z,5.00
2018-12-10T01:12:37.153Z,5.00
2018-12-10T01:15:05.316Z,5.00
2018-12-10T01:17:32.829Z,5.00
2018-12-10T01:20:00.362Z,5.00
2018-12-10T01:22:27.953Z,4.90
2018-12-10T01:24:55.484Z,4.80
2018-12-10T01:27:22.989Z,4.80
2018-12-10T01:29:50.489Z,4.70
2018-12-10T01:32:18.010Z,4.70
2018-12-10T01:34:45.528Z,4.60
2018-12-10T01:37:13.077Z,4.60
2018-12-10T01:39:40.747Z,4.60
2018-12-10T01:42:08.292Z,4.60
2018-12-10T01:44:35.813Z,4.60
2018-12-10T01:47:03.433Z,4.50
2018-12-10T01:49:30.933Z,4.50
2018-12-10T01:51:58.436Z,4.50
2018-12-10T01:54:25.945Z,4.50
2018-12-10T01:56:53.468Z,4.40
2018-12-10T01:59:21.076Z,4.40
2018-12-10T02:01:48.659Z,4.40
2018-12-10T02:04:16.144Z,4.40
2018-12-10T02:06:43.724Z,4.40
2018-12-10T02:09:11.216Z,4.40
2018-12-10T02:11:38.738Z,4.50
2018-12-10T02:14:06.249Z,4.50
2018-12-10T02:16:33.745Z,4.50
2018-12-10T02:19:01.308Z,4.60
2018-12-10T02:21:28.926Z,4.60
2018-12-10T02:23:56.407Z,4.60
2018-12-10T02:26:24.126Z,4.60
2018-12-10T02:31:47.550Z,4.60
2018-12-10T02:34:15.082Z,4.60
2018-12-10T02:36:42.561Z,4.60
2018-12-10T02:39:10.208Z,4.60
2018-12-10T02:41:37.736Z,4.60
2018-12-10T02:44:05.257Z,4.60
2018-12-10T02:46:32.895Z,4.60
2018-12-10T02:49:00.411Z,4.60
2018-12-10T02:51:27.897Z,4.60
2018-12-10T02:53:55.450Z,4.60
2018-12-10T02:56:23.014Z,4.50
2018-12-10T02:58:50.589Z,4.50
2018-12-10T03:01:18.132Z,4.50
2018-12-10T03:03:45.691Z,4.50
2018-12-10T03:06:13.246Z,4.50
2018-12-10T03:08:40.755Z,4.50
2018-12-10T03:11:08.361Z,4.50
2018-12-10T03:13:36.512Z,4.50
2018-12-10T03:16:04.400Z,4.50
2018-12-10T03:18:31.884Z,4.50
2018-12-10T03:20:59.471Z,4.50
2018-12-10T03:23:26.973Z,4.50
2018-12-10T03:25:54.466Z,4.50
2018-12-10T03:28:21.992Z,4.50
2018-12-10T03:30:49.497Z,4.50
2018-12-10T03:33:17.004Z,4.50
2018-12-10T03:35:44.513Z,4.50
2018-12-10T03:38:12.117Z,4.50
2018-12-10T03:40:39.675Z,4.40
2018-12-10T03:43:07.241Z,4.40
2018-12-10T03:45:34.900Z,4.40
2018-12-10T03:48:02.424Z,4.40
2018-12-10T03:50:29.948Z,4.40
2018-12-10T03:52:57.481Z,4.40
2018-12-10T03:55:25.233Z,4.50
2018-12-10T03:57:52.752Z,4.50
2018-12-10T04:00:20.260Z,4.50
2018-12-10T04:02:47.766Z,4.50
2018-12-10T04:05:15.401Z,4.40
2018-12-10T04:07:43.033Z,4.40
2018-12-10T04:10:10.692Z,4.40
2018-12-10T04:12:38.270Z,4.30
2018-12-10T04:15:05.908Z,4.30
2018-12-10T04:17:33.499Z,4.30
2018-12-10T04:20:01.069Z,4.30
2018-12-10T04:22:28.821Z,4.20
2018-12-10T04:24:56.357Z,4.20
2018-12-10T04:27:23.911Z,4.20
2018-12-10T04:29:51.434Z,4.20
2018-12-10T04:32:19.132Z,4.20
2018-12-10T04:34:46.714Z,4.20
2018-12-10T04:37:14.333Z,4.30
2018-12-10T04:39:41.933Z,4.30
2018-12-10T04:42:09.534Z,4.30
2018-12-10T04:44:37.045Z,4.30
2018-12-10T04:47:04.588Z,4.30
2018-12-10T04:49:32.091Z,4.30
2018-12-10T04:51:59.713Z,4.30
2018-12-10T04:54:27.342Z,4.40
2018-12-10T04:56:54.973Z,4.40
2018-12-10T04:59:22.687Z,4.40
2018-12-10T05:01:50.183Z,4.40
2018-12-10T05:04:17.668Z,4.40
2018-12-10T05:06:45.181Z,4.30
2018-12-10T05:09:12.792Z,4.30
2018-12-10T05:11:40.302Z,4.30
2018-12-10T05:14:07.804Z,4.30
2018-12-10T05:16:35.393Z,4.30
2018-12-10T05:19:03.051Z,4.20
2018-12-10T05:21:30.715Z,4.20
2018-12-10T05:23:58.193Z,4.10
2018-12-10T05:26:25.844Z,4.10
2018-12-10T05:28:53.356Z,4.10
2018-12-10T05:31:21.153Z,4.10
2018-12-10T05:33:48.630Z,4.10
2018-12-10T05:36:16.171Z,4.20
2018-12-10T05:38:43.798Z,4.20
2018-12-10T05:41:11.390Z,4.30
2018-12-10T05:43:38.952Z,4.30
2018-12-10T05:46:06.465Z,4.30
2018-12-10T05:48:34.116Z,4.30
2018-12-10T05:51:01.636Z,4.30
2018-12-10T05:53:29.198Z,4.30
2018-12-10T05:55:56.829Z,4.30
2018-12-10T05:58:24.425Z,4.30
2018-12-10T06:00:52.035Z,4.30
2018-12-10T06:03:20.120Z,4.30
2018-12-10T06:05:47.758Z,4.20
2018-12-10T06:08:15.252Z,4.20
2018-12-10T06:10:42.760Z,4.10
2018-12-10T06:13:10.267Z,4.10
2018-12-10T06:15:37.773Z,4.00
2018-12-10T06:18:05.297Z,4.00
2018-12-10T06:20:32.909Z,4.00
2018-12-10T06:23:00.521Z,3.90
2018-12-10T06:25:28.057Z,3.90
2018-12-10T06:27:55.548Z,3.80
2018-12-10T06:30:23.074Z,3.80
2018-12-10T06:32:50.580Z,3.80
2018-12-10T06:35:18.190Z,3.80
2018-12-10T06:37:45.694Z,3.80
2018-12-10T06:40:13.308Z,3.80
2018-12-10T06:42:40.857Z,3.70
2018-12-10T06:45:08.573Z,3.70
2018-12-10T06:47:36.188Z,3.70
2018-12-10T06:50:05.299Z,3.70
2018-12-10T06:52:32.793Z,3.70
2018-12-10T06:55:01.579Z,3.70
2018-12-10T06:57:29.221Z,3.70
2018-12-10T06:59:56.856Z,3.80
2018-12-10T07:02:24.453Z,3.70
2018-12-10T07:04:52.078Z,3.70
2018-12-10T07:07:19.580Z,3.70
2018-12-10T07:09:47.101Z,3.80
2018-12-10T07:12:14.590Z,3.80
2018-12-10T07:14:42.104Z,3.90
2018-12-10T07:17:09.614Z,3.80
2018-12-10T07:19:37.117Z,3.80
2018-12-10T07:22:06.673Z,3.80
2018-12-10T07:24:34.282Z,3.80
2018-12-10T07:27:01.841Z,3.80
2018-12-10T07:29:29.332Z,4.40
2018-12-10T07:31:56.854Z,3.80
2018-12-10T07:34:24.334Z,3.80
2018-12-10T07:36:51.944Z,3.80
2018-12-10T07:39:19.437Z,3.80
2018-12-10T07:41:46.957Z,3.70
2018-12-10T07:44:14.558Z,3.70
2018-12-10T07:46:42.069Z,3.70
2018-12-10T07:49:09.585Z,3.70
2018-12-10T07:51:37.192Z,3.70
2018-12-10T07:54:04.780Z,3.70
2018-12-10T07:56:32.282Z,3.70
2018-12-10T07:58:59.815Z,3.70
2018-12-10T08:01:27.388Z,3.70
2018-12-10T08:03:54.892Z,3.80
2018-12-10T08:06:22.494Z,3.80
2018-12-10T08:08:50.365Z,3.80
2018-12-10T08:11:18.053Z,3.80
2018-12-10T08:13:45.659Z,3.80
2018-12-10T08:16:13.162Z,3.80
2018-12-10T08:18:40.776Z,3.90
2018-12-10T08:21:08.334Z,3.90
2018-12-10T08:23:35.929Z,3.90
2018-12-10T08:26:03.445Z,3.90
2018-12-10T08:28:31.017Z,4.00
2018-12-10T08:30:58.536Z,4.00
2018-12-10T08:33:26.033Z,4.00
2018-12-10T08:35:53.584Z,4.00
2018-12-10T08:38:21.067Z,4.00
2018-12-10T08:40:48.805Z,4.10
2018-12-10T08:43:16.464Z,4.10
2018-12-10T08:45:43.962Z,4.10
2018-12-10T08:48:11.496Z,4.20
2018-12-10T08:50:38.993Z,4.20
2018-12-10T08:53:06.803Z,4.20
2018-12-10T08:55:34.372Z,4.30
2018-12-10T08:58:01.886Z,4.30
2018-12-10T09:00:29.485Z,4.30
2018-12-10T09:02:56.985Z,4.30
2018-12-10T09:05:24.618Z,4.20
2018-12-10T09:07:52.159Z,4.20
2018-12-10T09:10:19.816Z,4.10
2018-12-10T09:12:47.638Z,4.10
2018-12-10T09:15:15.344Z,4.10
2018-12-10T09:17:42.842Z,4.20
2018-12-10T09:20:10.357Z,4.30
2018-12-10T09:22:37.869Z,4.40
2018-12-10T09:25:05.781Z,4.40
2018-12-10T09:27:33.341Z,4.50
2018-12-10T09:30:00.894Z,4.50
2018-12-10T09:32:28.407Z,4.60
2018-12-10T09:34:55.925Z,4.60
2018-12-10T09:37:23.516Z,4.60
2018-12-10T09:39:51.046Z,4.70
2018-12-10T09:42:18.537Z,4.60
2018-12-10T09:44:46.163Z,4.70
2018-12-10T09:47:13.848Z,4.90
2018-12-10T09:49:41.461Z,5.00
2018-12-10T09:52:08.975Z,5.20
2018-12-10T09:54:36.473Z,5.30
2018-12-10T09:57:04.194Z,5.20
2018-12-10T09:59:31.688Z,5.10
2018-12-10T10:01:59.186Z,5.10
2018-12-10T10:04:26.732Z,5.00
2018-12-10T10:06:54.409Z,4.90
2018-12-10T10:09:21.941Z,4.90
2018-12-10T10:11:49.533Z,4.90
2018-12-10T10:14:17.032Z,4.80
2018-12-10T10:16:44.588Z,4.90
2018-12-10T10:19:12.157Z,5.00
2018-12-10T10:21:39.652Z,5.00
2018-12-10T10:24:07.189Z,5.00
2018-12-10T10:26:34.757Z,5.00
2018-12-10T10:29:02.500Z,5.00
2018-12-10T10:31:31.540Z,5.00
2018-12-10T10:33:59.189Z,5.00
2018-12-10T10:36:26.696Z,5.10
2018-12-10T10:38:54.232Z,5.20
2018-12-10T10:41:21.725Z,5.20
2018-12-10T10:43:49.213Z,5.10
2018-12-10T10:46:16.755Z,5.10
2018-12-10T10:48:44.249Z,5.10
2018-12-10T10:51:11.974Z,5.10
2018-12-10T10:53:39.457Z,5.10
2018-12-10T10:56:07.061Z,5.10
2018-12-10T10:58:34.754Z,5.20
2018-12-10T11:01:08.009Z,5.20
2018-12-10T11:03:38.119Z,5.20
2018-12-10T11:06:06.511Z,5.20
2018-12-10T11:08:34.029Z,5.20
2018-12-10T11:11:01.525Z,5.20
2018-12-10T11:13:29.061Z,5.20
2018-12-10T11:15:56.561Z,5.20
2018-12-10T11:18:24.075Z,5.20
2018-12-10T11:20:51.577Z,5.20
2018-12-10T11:23:19.113Z,5.20
2018-12-10T11:25:46.706Z,5.20
2018-12-10T11:28:14.365Z,5.30
2018-12-10T11:30:42.044Z,5.30
2018-12-10T11:35:41.691Z,5.30
2018-12-10T11:38:09.185Z,5.20
2018-12-10T11:40:36.693Z,5.20
2018-12-10T11:43:04.225Z,5.20
2018-12-10T11:45:31.729Z,5.20
2018-12-10T11:47:59.253Z,5.20
2018-12-10T11:50:26.755Z,5.20
2018-12-10T11:52:54.265Z,5.10
2018-12-10T11:55:21.811Z,5.10
2018-12-10T11:57:49.414Z,5.10
2018-12-10T12:00:16.928Z,5.20
2018-12-10T12:02:44.488Z,5.20
2018-12-10T12:05:11.968Z,5.20
2018-12-10T12:07:39.505Z,5.30
2018-12-10T12:10:07.720Z,5.30
2018-12-10T12:12:35.193Z,5.20
2018-12-10T12:15:02.803Z,5.20
2018-12-10T12:17:30.297Z,5.20
2018-12-10T12:19:57.837Z,5.20
2018-12-10T12:22:25.470Z,5.20
2018-12-10T12:24:52.973Z,5.20
2018-12-10T12:27:20.476Z,5.20
2018-12-10T12:29:48.039Z,5.30
2018-12-10T12:32:15.636Z,5.40
2018-12-10T12:34:43.201Z,5.40
2018-12-10T12:37:10.729Z,5.40
2018-12-10T12:39:38.249Z,5.40
2018-12-10T12:42:05.775Z,5.40
2018-12-10T12:44:33.504Z,5.30
2018-12-10T12:47:01.058Z,5.20
2018-12-10T12:49:28.578Z,5.20
2018-12-10T12:51:56.177Z,5.20
2018-12-10T12:54:23.670Z,5.30
2018-12-10T12:56:51.224Z,5.30
2018-12-10T12:59:18.775Z,5.30
2018-12-10T13:01:49.414Z,5.30
2018-12-10T13:04:17.224Z,5.30
2018-12-10T13:06:45.014Z,5.40
2018-12-10T13:09:12.644Z,5.40
2018-12-10T13:11:40.279Z,5.40
2018-12-10T13:14:07.801Z,5.30
2018-12-10T13:16:35.299Z,5.30
2018-12-10T13:19:02.820Z,5.30
2018-12-10T13:21:30.315Z,5.20
2018-12-10T13:23:57.839Z,5.20
2018-12-10T13:26:25.480Z,5.20
2018-12-10T13:28:53.056Z,5.10
2018-12-10T13:31:20.636Z,5.10
2018-12-10T13:33:48.153Z,5.20
2018-12-10T13:36:15.746Z,5.30
2018-12-10T13:38:43.245Z,5.30
2018-12-10T13:41:11.035Z,5.30
2018-12-10T13:43:38.594Z,5.30
2018-12-10T13:46:06.161Z,5.30
2018-12-10T13:48:33.805Z,5.40
2018-12-10T13:51:01.371Z,5.40
2018-12-10T13:53:28.851Z,5.40
2018-12-10T13:55:56.386Z,5.50
2018-12-10T13:58:23.946Z,5.50
2018-12-10T14:00:51.504Z,5.50
2018-12-10T14:03:19.063Z,5.50
2018-12-10T14:05:47.674Z,5.50
2018-12-10T14:08:15.511Z,5.40
2018-12-10T14:10:43.014Z,5.40
2018-12-10T14:13:10.633Z,5.40
2018-12-10T14:15:38.134Z,5.40
2018-12-10T14:18:05.745Z,5.40
2018-12-10T14:20:33.407Z,5.40
2018-12-10T14:23:00.904Z,5.40
2018-12-10T14:25:28.535Z,5.40
2018-12-10T14:27:56.134Z,5.40
2018-12-10T14:30:24.050Z,5.50
2018-12-10T14:32:51.645Z,5.30
2018-12-10T14:35:19.261Z,4.90
2018-12-10T14:37:46.765Z,4.60
2018-12-10T14:40:14.468Z,4.00
2018-12-10T14:42:52.161Z,3.90
2018-12-10T14:45:19.878Z,3.80
2018-12-10T14:47:50.243Z,3.80
2018-12-10T14:50:17.778Z,3.80
2018-12-10T14:52:45.317Z,3.70
2018-12-10T14:55:12.949Z,3.60
2018-12-10T14:57:40.510Z,3.50
2018-12-10T15:00:09.794Z,3.50
2018-12-10T15:02:37.305Z,3.40
2018-12-10T15:05:06.416Z,3.40
2018-12-10T15:07:33.954Z,3.40
2018-12-10T15:10:01.502Z,3.60
2018-12-10T15:12:29.139Z,3.70
2018-12-10T15:14:56.701Z,3.70
2018-12-10T15:17:24.281Z,3.70
2018-12-10T15:19:51.810Z,3.60
2018-12-10T15:22:19.328Z,3.60
2018-12-10T15:24:46.890Z,3.50
2018-12-10T15:27:14.392Z,3.50
2018-12-10T15:29:41.907Z,3.50
2018-12-10T15:32:09.507Z,3.50
2018-12-10T15:34:37.065Z,3.50
2018-12-10T15:37:04.626Z,3.50
2018-12-10T15:39:32.183Z,3.50
2018-12-10T15:41:59.690Z,3.40
2018-12-10T15:44:27.318Z,3.40
2018-12-10T15:46:54.932Z,3.40
2018-12-10T15:49:22.426Z,3.40
2018-12-10T15:51:50.079Z,3.40
2018-12-10T15:54:17.637Z,3.40
2018-12-10T15:56:45.198Z,3.40
2018-12-10T15:59:12.681Z,3.40
2018-12-10T16:01:40.213Z,3.40
2018-12-10T16:04:07.720Z,3.40
2018-12-10T16:06:35.240Z,3.50
2018-12-10T16:09:04.257Z,3.40
2018-12-10T16:11:31.768Z,3.40
2018-12-10T16:13:59.286Z,3.40
2018-12-10T16:16:26.777Z,3.40
2018-12-10T16:18:54.301Z,3.40
2018-12-10T16:21:21.805Z,3.40
2018-12-10T16:23:49.332Z,3.40
2018-12-10T16:26:16.843Z,3.40
2018-12-10T16:28:44.405Z,3.40
2018-12-10T16:31:11.939Z,3.40
2018-12-10T16:33:39.444Z,3.40
2018-12-10T16:36:07.285Z,3.40
2018-12-10T16:38:34.825Z,3.40
2018-12-10T16:41:02.354Z,3.40
2018-12-10T16:43:29.934Z,3.40
2018-12-10T16:45:57.457Z,3.40
2018-12-10T16:48:25.161Z,3.40
2018-12-10T16:50:52.717Z,3.40
2018-12-10T16:53:20.232Z,3.40
2018-12-10T16:55:47.899Z,3.40
2018-12-10T16:58:15.552Z,3.40
2018-12-10T17:00:43.156Z,3.40
2018-12-10T17:03:10.687Z,3.40
2018-12-10T17:05:38.244Z,3.50
2018-12-10T17:08:05.744Z,3.50
2018-12-10T17:10:33.253Z,3.50
2018-12-10T17:13:00.781Z,3.50
2018-12-10T17:15:28.294Z,3.50
2018-12-10T17:17:55.869Z,3.50
2018-12-10T17:20:23.373Z,3.60
2018-12-10T17:22:50.953Z,3.60
2018-12-10T17:25:18.506Z,3.60
2018-12-10T17:27:46.200Z,3.60
2018-12-10T17:30:13.918Z,3.60
2018-12-10T17:32:41.400Z,3.70
2018-12-10T17:35:08.992Z,3.70
2018-12-10T17:37:36.488Z,3.70
2018-12-10T17:40:04.913Z,3.70
2018-12-10T17:42:32.508Z,3.70
2018-12-10T17:45:00.134Z,3.70
2018-12-10T17:47:27.726Z,3.70
2018-12-10T17:49:55.525Z,3.70
2018-12-10T17:52:23.122Z,3.70
2018-12-10T17:54:50.779Z,3.70
2018-12-10T17:57:18.285Z,3.70
2018-12-10T17:59:45.800Z,3.70
2018-12-10T18:02:13.297Z,3.70
2018-12-10T18:04:40.837Z,3.70
2018-12-10T18:07:08.337Z,3.70
2018-12-10T18:09:35.857Z,3.80
2018-12-10T18:12:03.503Z,3.80
2018-12-10T18:14:31.044Z,3.80
2018-12-10T18:16:58.545Z,3.80
2018-12-10T18:19:26.265Z,3.70
2018-12-10T18:21:53.864Z,3.70
2018-12-10T18:24:21.502Z,3.70
2018-12-10T18:26:49.020Z,3.70
2018-12-10T18:29:16.600Z,3.60
2018-12-10T18:31:44.262Z,3.60
2018-12-10T18:34:11.821Z,3.60
2018-12-10T18:36:39.312Z,3.60
2018-12-10T18:39:07.655Z,3.50
2018-12-10T18:41:35.219Z,3.50
2018-12-10T18:44:02.845Z,3.50
2018-12-10T18:46:30.381Z,3.50
2018-12-10T18:48:57.931Z,3.50
2018-12-10T18:51:25.442Z,3.50
2018-12-10T18:53:52.974Z,3.60
2018-12-10T18:56:20.699Z,3.60
2018-12-10T18:58:48.425Z,3.60
2018-12-10T19:01:16.009Z,3.60
2018-12-10T19:03:43.537Z,3.60
2018-12-10T19:06:11.058Z,3.60
2018-12-10T19:08:38.666Z,3.60
2018-12-10T19:11:07.761Z,3.70
2018-12-10T19:13:35.321Z,3.70
2018-12-10T19:16:02.993Z,3.80
2018-12-10T19:18:30.533Z,3.80
2018-12-10T19:20:58.056Z,3.80
2018-12-10T19:23:25.578Z,3.90
2018-12-10T19:25:53.215Z,3.90
2018-12-10T19:28:20.775Z,3.80
2018-12-10T19:30:48.341Z,3.80
2018-12-10T19:33:15.886Z,3.80
2018-12-10T19:35:43.403Z,3.90
2018-12-10T19:38:10.921Z,3.90
2018-12-10T19:40:38.442Z,3.80
2018-12-10T19:43:06.049Z,3.80
2018-12-10T19:45:33.561Z,3.80
2018-12-10T19:48:01.244Z,3.80
2018-12-10T19:50:28.803Z,3.80
2018-12-10T19:52:56.360Z,3.80
2018-12-10T19:55:23.856Z,3.80
2018-12-10T19:57:51.453Z,3.90
2018-12-10T20:00:18.961Z,3.90
2018-12-10T20:02:46.520Z,3.90
2018-12-10T20:05:14.090Z,3.90
2018-12-10T20:07:41.589Z,3.80
2018-12-10T20:10:09.436Z,3.90
2018-12-10T20:12:36.989Z,3.90
2018-12-10T20:15:07.257Z,3.90
2018-12-10T20:17:34.816Z,3.90
2018-12-10T20:20:02.808Z,3.90
2018-12-10T20:22:30.299Z,3.80
2018-12-10T20:24:57.902Z,3.80
2018-12-10T20:27:25.395Z,3.80
2018-12-10T20:29:53.024Z,3.80
2018-12-10T20:32:20.691Z,3.80
2018-12-10T20:34:48.342Z,3.80
2018-12-10T20:37:15.985Z,3.80
2018-12-10T20:39:43.590Z,3.90
2018-12-10T20:42:11.092Z,3.90
2018-12-10T20:44:38.619Z,3.90
2018-12-10T20:47:06.121Z,3.80
2018-12-10T20:49:33.899Z,3.80
2018-12-10T20:52:01.399Z,3.80
2018-12-10T20:54:28.924Z,3.80
2018-12-10T20:56:56.589Z,3.70
2018-12-10T20:59:24.089Z,3.80
2018-12-10T21:01:51.610Z,3.80
2018-12-10T21:04:19.250Z,3.80
2018-12-10T21:06:46.857Z,3.80
2018-12-10T21:09:14.370Z,3.90
2018-12-10T21:11:41.992Z,3.80
2018-12-10T21:14:09.520Z,3.80
2018-12-10T21:16:37.081Z,3.80
2018-12-10T21:19:04.807Z,3.80
2018-12-10T21:21:32.366Z,3.80
2018-12-10T21:23:59.924Z,3.80
2018-12-10T21:26:27.531Z,3.80
2018-12-10T21:28:55.041Z,3.80
2018-12-10T21:31:22.648Z,3.80
2018-12-10T21:33:50.263Z,3.80
2018-12-10T21:36:17.753Z,3.80
2018-12-10T21:38:45.626Z,3.80
2018-12-10T21:41:13.277Z,3.80
2018-12-10T21:43:40.914Z,3.80
2018-12-10T21:46:08.551Z,3.80
2018-12-10T21:48:36.065Z,3.80
2018-12-10T21:51:03.786Z,3.80
2018-12-10T21:53:31.346Z,3.80
2018-12-10T21:55:58.913Z,3.80
2018-12-10T21:58:26.461Z,3.70
2018-12-10T22:00:54.096Z,3.70
2018-12-10T22:03:21.612Z,3.70
2018-12-10T22:05:49.127Z,3.80
2018-12-10T22:08:16.656Z,3.80
2018-12-10T22:10:44.160Z,3.70
2018-12-10T22:13:11.680Z,3.70
2018-12-10T22:15:39.184Z,3.70
2018-12-10T22:18:06.829Z,3.60
2018-12-10T22:20:34.390Z,3.60
2018-12-10T22:23:01.956Z,3.60
2018-12-10T22:25:29.474Z,3.60
2018-12-10T22:27:57.067Z,3.60
2018-12-10T22:30:24.680Z,3.60
2018-12-10T22:32:52.243Z,3.60
2018-12-10T22:35:19.750Z,3.60
2018-12-10T22:37:47.299Z,3.60
2018-12-10T22:40:14.856Z,3.70
2018-12-10T22:42:42.337Z,3.70
2018-12-10T22:45:10.080Z,3.70
2018-12-10T22:47:37.681Z,3.70
2018-12-10T22:50:06.110Z,3.70
2018-12-10T22:52:33.646Z,3.70
2018-12-10T22:55:01.192Z,3.70
2018-12-10T22:57:28.704Z,3.60
2018-12-10T22:59:56.200Z,3.60
2018-12-10T23:02:23.918Z,3.60
2018-12-10T23:04:51.469Z,3.60
2018-12-10T23:07:19.081Z,3.50
2018-12-10T23:09:46.629Z,3.50
2018-12-10T23:12:14.134Z,3.50
2018-12-10T23:14:41.653Z,3.50
2018-12-10T23:17:09.159Z,3.40
2018-12-10T23:19:36.680Z,3.50
2018-12-10T23:22:04.199Z,3.50
2018-12-10T23:24:31.728Z,3.50
2018-12-10T23:26:59.233Z,3.50
2018-12-10T23:29:26.858Z,3.50
2018-12-10T23:31:54.521Z,3.40
2018-12-10T23:34:22.030Z,3.40
2018-12-10T23:36:49.537Z,3.40
2018-12-10T23:39:17.044Z,3.40
2018-12-10T23:41:44.570Z,3.40
2018-12-10T23:44:14.093Z,3.40
2018-12-10T23:46:41.738Z,3.40
2018-12-10T23:49:09.275Z,3.40
2018-12-10T23:51:36.943Z,3.30
2018-12-10T23:54:04.600Z,3.30
2018-12-10T23:56:32.121Z,3.40
2018-12-10T23:58:59.638Z,3.40
